Historique des mesures à Cassis (13260), France
Quotidien Résumé Novembre 14, 2017 Unités:  Métrique    US   Métrique/US
« Précédent (Jour)
Suivant (Jour) »
Quotidien Hebdomadaire Mensuel Annuel Période au choix
  Maximum: Minimum: Moyenne:
Température: TemperatureC °C 8.0 °C 9.9 °C
Point de rosée: DewpointC °C -3.2 °C -1.7 °C
Humidité: Humidity % 33 % 42 %
Vitesse du vent: 0 km/h 0 km/h 8.2 km/h
Rafales: 0 km/h - -
Vent:- - SSW
Pression: PressurehPa hPa 1007.3 hPa -
Précipitations: 0.0 mm    
Historical Graphs
 
 
Mesures pour : Novembre 14, 2017
Heure Temperature Point de rosée Pression Vent Vitesse du vent Rafales Humidité Pluie (par heure) Conditions
TemperatureC °C DewpointC °C PressurehPa hPa Calm     Humidity % HourlyPrecipMM mm SoftwareType W/m2
00:10 9.1 °C -2.6 °C 1007.3 hPa NW 8 km/h 9.8 km/h 44 % 0.0 mm open2300-1.11 W/m2
01:11 8.9 °C -2.8 °C 1007.3 hPa NNW 11.6 km/h 16.3 km/h 44 % 0.0 mm open2300-1.11 W/m2
02:10 8.8 °C -2.6 °C 1008.0 hPa Calm     45 % 0.0 mm open2300-1.11 W/m2
03:11 8.0 °C -2.4 °C 1008.0 hPa NW 18.7 km/h 30.7 km/h 48 % 0.0 mm open2300-1.11 W/m2
04:10 8.1 °C -2.6 °C 1008.0 hPa NNW 19.2 km/h 19.2 km/h 47 % 0.0 mm open2300-1.11 W/m2
05:11 8.0 °C -3.0 °C 1008.4 hPa NW 30.7 km/h 30.7 km/h 46 % 0.0 mm open2300-1.11 W/m2
06:10 8.1 °C -3.2 °C 1009.0 hPa NNE 10.9 km/h 34.1 km/h 45 % 0.0 mm open2300-1.11 W/m2
07:11 8.1 °C -3.2 °C 1009.7 hPa NW 8 km/h 20.9 km/h 45 % 0.0 mm open2300-1.11 W/m2
08:10 8.1 °C -3.2 °C 1010.7 hPa NNW 9.3 km/h 12.7 km/h 45 % 0.0 mm open2300-1.11 W/m2
09:11 9.3 °C -3.1 °C 1011.4 hPa NNE 9.8 km/h 9.8 km/h 42 % 0.0 mm open2300-1.11 W/m2
10:10 10.1 °C -2.3 °C 1012.1 hPa Calm   8.9 km/h 42 % 0.0 mm open2300-1.11 W/m2
11:11 11.8 °C -1.8 °C 1012.4 hPa Calm     39 % 0.0 mm open2300-1.11 W/m2
12:10 12.9 °C -1.6 °C 1012.8 hPa NW 15 km/h 22.5 km/h 37 % 0.0 mm open2300-1.11 W/m2
13:11 13.5 °C -1.4 °C 1012.8 hPa ENE 8 km/h 29.5 km/h 36 % 0.0 mm open2300-1.11 W/m2
14:10 14.2 °C -1.2 °C 1012.8 hPa Calm   25.4 km/h 35 % 0.0 mm open2300-1.11 W/m2
15:11 14.4 °C -1.8 °C 1012.8 hPa West 17.9 km/h 17.9 km/h 33 % 0.0 mm open2300-1.11 W/m2
16:10 13.9 °C 0.1 °C 1012.4 hPa North 10.9 km/h 13.2 km/h 39 % 0.0 mm open2300-1.11 W/m2
17:11 12.3 °C 0.0 °C 1012.8 hPa WSW 12.7 km/h 23 km/h 43 % 0.0 mm open2300-1.11 W/m2
18:10 11.1 °C -0.2 °C 1013.1 hPa Calm     46 % 0.0 mm open2300-1.11 W/m2
19:11 10.6 °C -0.6 °C 1013.4 hPa Calm   11.6 km/h 46 % 0.0 mm open2300-1.11 W/m2
20:10 9.9 °C -0.3 °C 1013.4 hPa Calm     49 % 0.0 mm open2300-1.11 W/m2
21:11 9.1 °C -0.6 °C 1014.1 hPa NE 4.7 km/h 4.7 km/h 51 % 0.0 mm open2300-1.11 W/m2
22:10 8.9 °C -0.7 °C 1014.1 hPa Calm     51 % 0.0 mm open2300-1.11 W/m2
23:11 9.3 °C -1.2 °C 1013.8 hPa NNE 8.9 km/h 8.9 km/h 48 % 0.0 mm open2300-1.11 W/m2
Observations météo à CASSIS
WU-History script by Weather Underground - 1 mb